Strona główna
METAR-TAF:

METAR-TAF

Lotnisko :

Port lotniczy Gran Canaria

Gran Canaria, Hiszpania

Szerokość geograficzna: 27-56N, Długość geograficzna: 015-23W, wysokość: 23 m

Aktualna obserwacja pogody

Raport powstał 29 minut temu, godzina 08:30 UTC
Wiatr 8 kt od północ, zmienny między północny zachód i północno-północny wschód
Temperatura 17°C
Wilgotność 27%
Ciśnienie 1027 hPa
Widzialność 10 km lub więcej
Brak chmur poniżej 1500 m i brak chmur cumulonimbus

METAR: GCLP 190830Z 36008KT 320V020 CAVOK 17/M02 Q1027 NOSIG

czas: 08:59 (08:59 UTC)

Prognoza

Raport powstał 59 minut temu, godzina 08:00 UTC
Prognoza ważna od 19 godzina 09 UTC do 20 godzina 09 UTC
Wiatr 17 kt od północno-północny wschód
Widzialność 10 km lub więcej
Mało chmury na wysokości 2000 ft

TAF: GCLP 190800Z 1909/2009 02017KT 9999 FEW020 TX22/1915Z TN15/2006Z

Obserwacja i prognoza pogody dla ponad 4000 lotnisk (raport METAR i TAF).

Dostępne stacje oznaczono żółtymi i czerwonymi punktami na mapie.

Najedź kursorem aby zobaczyć nazwę stacji.

Kliknij aby zobaczyć obserwacje i prognozy pogody.

Aby zmienić mapę: kliknij na zielony przycisk z czarnym krzyżykiem, aby powiększyć; na zielony przycisk z myślnikiem, aby pomniejszyć; na zielone strzałki, aby przejść do map sąsiednich.


METAR-TAF: